الصفحة الرئيسية
METAR-TAF:

METAR-TAF

مطار :

Whyalla, أستراليا

دائرة عرض: 33-03-32S, خط طول: 137-30-52E, ارتفاع: 12 متر

مراقبة الطقس الحالي

تاريخ ووقت الإصدار 53 دقيقة قبل الساعة 14:00UTC
ريح 13 عقدة من الشرق/الجنوب الشرقي
درجة الحرارة 15°درجة مئوية
الرطوبة 59%
ضغط 1024 hPa
الرؤية 10 كم أو أكثر

METAR: YWHA 111400Z AUTO 12013KT 9999 // NCD 15/07 Q1024

زمن: 00:23 (14:53 UTC)


TAF: مفقودة

أرصاد الطقس والتوقعات من أكثر من 4000 مطار (تقارير الطقس للمطار METAR والتنبؤ بالطقس بالمطارTAF).

المحطات المتاحة هي النقط الصفراء والحمراء على الخريطة.

حرك المؤشر فوق النقطة لمعرفة اسم المحطة.

ثم انقر لمعرفة أرصاد وتوقعات الطقس.

لتغيير الخارطة: اضغط على الأزرار الخضراء مع رمز الصليب الأسود للتكبير. على الزر الأخضر مع شرطة للتصغير، أو على الأسهم الخضراء للخرائط المجاورة.


METAR-TAF: